This is the latest recevied weather packets stored in our database for station/object NC4M. If no packets are shown the sender has not sent any weather packets the latest 10 day(s).
| Time | Temp. | Humidity | Pressure | Rain* | Wind** | Luminosity | Snow |
|---|---|---|---|---|---|---|---|
| 1777775072 | 8.33° C | 74% | 1019.9 hPa | 0 mm | - | 0 W/m² | - |
| 1777774464 | 8.33° C | 77% | 1020 hPa | 0 mm | - | 0 W/m² | - |
| 1777774162 | 8.33° C | 72% | 1019.8 hPa | 0 mm | - | 0 W/m² | - |
| 1777773860 | 8.89° C | 69% | 1019.9 hPa | 0 mm | - | 0 W/m² | - |
| 1777771132 | 10° C | 67% | 1019.3 hPa | 0 mm | - | 0 W/m² | - |
| 1777769313 | 12.22° C | 54% | 1019.4 hPa | 0 mm | - | 6 W/m² | - |
| 1777768101 | 13.33° C | 40% | 1019.4 hPa | 0 mm | - | 15 W/m² | - |
| 1777767798 | 13.89° C | 44% | 1019.3 hPa | 0 mm | - | 17 W/m² | - |
| 1777767191 | 13.89° C | 41% | 1019.2 hPa | 0 mm | - | 22 W/m² | - |
| 1777766889 | 14.44° C | 45% | 1019.3 hPa | 0 mm | - | 23 W/m² | - |
| 1777765374 | 15° C | 39% | 1019.2 hPa | 0 mm | - | 32 W/m² | - |
| 1777764767 | 15° C | 40% | 1019.1 hPa | 0 mm | - | 48 W/m² | - |
| 1777764463 | 15° C | 37% | 1019.3 hPa | 0 mm | - | 47 W/m² | - |
| 1777764160 | 15° C | 36% | 1019.2 hPa | 0 mm | - | 45 W/m² | - |
| 1777761737 | 14.44° C | 38% | 1019.5 hPa | 0 mm | - | 48 W/m² | - |
| 1777761434 | 15° C | 38% | 1019.5 hPa | 0 mm | - | 47 W/m² | - |
| 1777761132 | 15.56° C | 36% | 1019.3 hPa | 0 mm | - | 53 W/m² | - |
| 1777760830 | 15.56° C | 36% | 1019.3 hPa | 0 mm | - | 96 W/m² | - |
| 1777760222 | 16.11° C | 34% | 1019.2 hPa | 0 mm | - | 136 W/m² | - |
| 1777759919 | 16.67° C | 36% | 1019.3 hPa | 0 mm | - | 75 W/m² | - |
| 1777759615 | 16.67° C | 35% | 1019.4 hPa | 0 mm | - | 115 W/m² | - |
| 1777757797 | 16.67° C | 32% | 1019.4 hPa | 0 mm | - | 302 W/m² | - |
| 1777757494 | 15.56° C | 37% | 1019.2 hPa | 0 mm | - | 575 W/m² | - |
| 1777757193 | 15° C | 37% | 1019.3 hPa | 0 mm | - | 532 W/m² | - |
| 1777756586 | 16.11° C | 35% | 1019.3 hPa | 0 mm | - | 82 W/m² | - |
* Rain latest hour (hover to see other rain measurements)
** Current wind speed in m/s (hover to see current wind gust speed)